createdAt,value
2018-12-01T00:03:40.090Z,100640.59
2018-12-01T00:09:57.611Z,100639.47
2018-12-01T00:13:20.519Z,100647.72
2018-12-01T00:16:25.176Z,100644.46
2018-12-01T00:19:30.086Z,100649.34
2018-12-01T00:22:52.842Z,100639.72
2018-12-01T00:29:17.086Z,100635.86
2018-12-01T00:36:07.007Z,100627.53
2018-12-01T00:39:11.619Z,100633.11
2018-12-01T00:42:17.136Z,100632.84
2018-12-01T00:45:38.206Z,100643.77
2018-12-01T00:48:42.646Z,100637.08
2018-12-01T01:02:20.667Z,100615.16
2018-12-01T01:05:29.385Z,100620.77
2018-12-01T01:08:33.792Z,100630.23
2018-12-01T01:11:38.955Z,100631.88
2018-12-01T01:14:44.125Z,100629.15
2018-12-01T01:17:50.348Z,100627.20
2018-12-01T01:20:55.144Z,100629.06
2018-12-01T01:27:17.076Z,100641.15
2018-12-01T01:30:23.918Z,100642.03
2018-12-01T01:33:32.530Z,100641.39
2018-12-01T01:36:37.078Z,100646.28
2018-12-01T01:39:41.561Z,100648.11
2018-12-01T01:42:46.058Z,100641.98
2018-12-01T01:45:50.470Z,100632.15
2018-12-01T01:48:54.882Z,100625.10
2018-12-01T01:52:02.028Z,100620.60
2018-12-01T01:55:10.373Z,100616.90
2018-12-01T01:58:17.562Z,100611.62
2018-12-01T02:01:22.571Z,100615.12
2018-12-01T02:04:27.177Z,100610.55
2018-12-01T02:07:32.669Z,100612.06
2018-12-01T02:10:37.599Z,100603.02
2018-12-01T02:13:42.196Z,100606.45
2018-12-01T02:16:46.651Z,100598.27
2018-12-01T02:19:51.268Z,100596.11
2018-12-01T02:22:56.101Z,100593.02
2018-12-01T02:26:00.619Z,100590.94
2018-12-01T02:29:05.462Z,100595.46
2018-12-01T02:32:12.394Z,100603.58
2018-12-01T02:35:33.229Z,100602.00
2018-12-01T02:38:37.666Z,100598.19
2018-12-01T02:41:42.719Z,100590.22
2018-12-01T02:45:13.154Z,100587.15
2018-12-01T02:48:18.910Z,100594.25
2018-12-01T02:51:23.655Z,100593.46
2018-12-01T02:54:28.064Z,100602.09
2018-12-01T03:00:45.865Z,100598.21
2018-12-01T03:03:50.528Z,100598.27
2018-12-01T03:06:55.186Z,100597.85
2018-12-01T03:10:00.270Z,100610.24
2018-12-01T03:13:05.840Z,100611.56
2018-12-01T03:16:10.330Z,100614.34
2018-12-01T03:19:14.858Z,100615.38
2018-12-01T03:22:19.825Z,100617.80
2018-12-01T03:25:27.720Z,100614.70
2018-12-01T03:28:32.215Z,100622.03
2018-12-01T03:31:36.794Z,100622.52
2018-12-01T03:34:41.434Z,100623.05
2018-12-01T03:37:47.445Z,100624.63
2018-12-01T03:40:52.884Z,100625.55
2018-12-01T03:47:22.914Z,100625.89
2018-12-01T03:50:27.605Z,100620.66
2018-12-01T03:53:32.124Z,100628.05
2018-12-01T03:56:36.496Z,100629.34
2018-12-01T03:59:40.963Z,100624.63
2018-12-01T04:02:45.644Z,100615.41
2018-12-01T04:05:49.944Z,100624.39
2018-12-01T04:08:54.466Z,100623.47
2018-12-01T04:11:59.194Z,100620.15
2018-12-01T04:15:20.477Z,100606.27
2018-12-01T04:18:25.092Z,100598.30
2018-12-01T04:21:29.515Z,100592.63
2018-12-01T04:24:33.962Z,100596.95
2018-12-01T04:27:38.444Z,100599.36
2018-12-01T04:30:42.989Z,100609.63
2018-12-01T04:33:54.433Z,100613.75
2018-12-01T04:36:58.866Z,100611.08
2018-12-01T04:43:28.318Z,100607.74
2018-12-01T04:46:32.656Z,100614.91
2018-12-01T04:49:37.290Z,100607.17
2018-12-01T04:52:43.002Z,100618.52
2018-12-01T04:55:47.441Z,100622.55
2018-12-01T04:58:52.216Z,100626.84
2018-12-01T05:01:57.150Z,100622.21
2018-12-01T05:05:01.794Z,100619.63
2018-12-01T05:08:06.487Z,100619.45
2018-12-01T05:11:13.401Z,100620.02
2018-12-01T05:14:25.397Z,100620.59
2018-12-01T05:17:31.662Z,100623.05
2018-12-01T05:20:46.611Z,100617.88
2018-12-01T05:23:51.283Z,100619.66
2018-12-01T05:26:56.944Z,100621.67
2018-12-01T05:30:01.460Z,100622.57
2018-12-01T05:33:06.374Z,100620.47
2018-12-01T05:36:23.701Z,100621.77
2018-12-01T05:39:29.661Z,100618.19
2018-12-01T05:42:34.499Z,100617.31
2018-12-01T05:45:41.853Z,100623.17
2018-12-01T05:48:46.370Z,100620.26
2018-12-01T05:51:50.946Z,100622.91
2018-12-01T05:54:56.743Z,100619.81
2018-12-01T05:58:01.158Z,100621.19
2018-12-01T06:01:05.591Z,100614.28
2018-12-01T06:04:23.532Z,100619.98
2018-12-01T06:07:27.925Z,100623.53
2018-12-01T06:14:09.477Z,100618.84
2018-12-01T06:17:13.910Z,100615.84
2018-12-01T06:20:24.761Z,100615.69
2018-12-01T06:23:29.667Z,100617.08
2018-12-01T06:26:34.402Z,100613.05
2018-12-01T06:29:39.256Z,100616.47
2018-12-01T06:32:50.875Z,100611.94
2018-12-01T06:35:56.468Z,100612.63
2018-12-01T06:39:05.611Z,100611.95
2018-12-01T06:42:10.453Z,100616.81
2018-12-01T06:45:15.912Z,100621.85
2018-12-01T06:48:20.992Z,100616.59
2018-12-01T06:54:45.045Z,100620.42
2018-12-01T06:57:49.706Z,100628.72
2018-12-01T07:01:07.495Z,100632.44
2018-12-01T07:04:11.798Z,100637.14
2018-12-01T07:07:16.450Z,100637.73
2018-12-01T07:10:26.525Z,100636.18
2018-12-01T07:13:32.395Z,100641.86
2018-12-01T07:16:38.163Z,100633.53
2018-12-01T07:19:42.820Z,100635.34
2018-12-01T07:22:54.026Z,100631.22
2018-12-01T07:25:58.438Z,100641.44
2018-12-01T07:29:04.216Z,100631.31
2018-12-01T07:35:26.090Z,100634.30
2018-12-01T07:38:30.428Z,100638.88
2018-12-01T07:41:34.841Z,100632.15
2018-12-01T07:44:39.375Z,100636.47
2018-12-01T07:47:44.070Z,100629.05
2018-12-01T07:50:48.556Z,100623.57
2018-12-01T08:00:25.193Z,100635.18
2018-12-01T08:03:30.526Z,100629.47
2018-12-01T08:06:35.298Z,100631.05
2018-12-01T08:09:47.466Z,100626.31
2018-12-01T08:12:52.384Z,100625.98
2018-12-01T08:19:15.026Z,100631.27
2018-12-01T08:22:19.648Z,100624.56
2018-12-01T08:28:58.852Z,100631.62
2018-12-01T08:32:07.397Z,100635.94
2018-12-01T08:35:11.829Z,100643.59
2018-12-01T08:38:21.292Z,100649.27
2018-12-01T08:41:25.724Z,100657.11
2018-12-01T08:44:30.113Z,100649.36
2018-12-01T08:47:38.796Z,100649.42
2018-12-01T08:50:43.369Z,100651.23
2018-12-01T08:53:48.086Z,100659.95
2018-12-01T08:57:03.803Z,100655.11
2018-12-01T09:00:24.681Z,100662.27
2018-12-01T09:03:29.265Z,100663.88
2018-12-01T09:06:33.800Z,100660.72
2018-12-01T09:09:39.478Z,100658.56
2018-12-01T09:12:44.255Z,100658.98
2018-12-01T09:15:55.016Z,100665.02
2018-12-01T09:18:59.820Z,100664.30
2018-12-01T09:22:04.281Z,100666.49
2018-12-01T09:25:13.806Z,100677.30
2018-12-01T09:28:18.479Z,100674.39
2018-12-01T09:31:27.258Z,100676.78
2018-12-01T09:37:17.376Z,100685.98
2018-12-01T09:40:23.733Z,100690.36
2018-12-01T09:43:31.203Z,100688.30
2018-12-01T09:46:35.585Z,100679.36
2018-12-01T09:49:43.417Z,100674.48
2018-12-01T09:52:49.956Z,100677.80
2018-12-01T09:55:56.608Z,100684.29
2018-12-01T09:59:01.633Z,100683.78
2018-12-01T10:02:06.163Z,100684.54
2018-12-01T10:05:12.618Z,100675.83
2018-12-01T10:08:18.954Z,100670.58
2018-12-01T10:11:23.249Z,100674.98
2018-12-01T10:14:28.371Z,100668.78
2018-12-01T10:17:32.702Z,100675.11
2018-12-01T10:20:38.650Z,100676.28
2018-12-01T10:23:45.740Z,100678.41
2018-12-01T10:26:50.101Z,100685.83
2018-12-01T10:29:54.437Z,100679.70
2018-12-01T10:32:58.970Z,100678.48
2018-12-01T10:36:03.473Z,100679.38
2018-12-01T10:42:23.033Z,100682.89
2018-12-01T10:45:28.362Z,100680.13
2018-12-01T10:48:32.788Z,100679.41
2018-12-01T10:51:38.857Z,100679.56
2018-12-01T10:54:43.210Z,100683.14
2018-12-01T10:57:47.909Z,100677.16
2018-12-01T11:00:57.914Z,100682.57
2018-12-01T11:04:07.354Z,100674.83
2018-12-01T11:07:13.185Z,100671.76
2018-12-01T11:10:17.506Z,100668.24
2018-12-01T11:13:22.120Z,100671.04
2018-12-01T11:16:26.575Z,100669.42
2018-12-01T11:19:30.952Z,100668.63
2018-12-01T11:22:35.230Z,100663.67
2018-12-01T11:25:40.737Z,100669.38
2018-12-01T11:28:45.287Z,100668.17
2018-12-01T11:31:50.384Z,100665.04
2018-12-01T11:34:54.798Z,100662.94
2018-12-01T11:37:59.423Z,100670.16
2018-12-01T11:41:03.965Z,100664.20
2018-12-01T11:44:08.743Z,100657.35
2018-12-01T11:47:13.134Z,100651.98
2018-12-01T11:50:19.720Z,100650.77
2018-12-01T11:53:24.073Z,100656.22
2018-12-01T11:56:30.615Z,100654.87
2018-12-01T11:59:34.947Z,100648.48
2018-12-01T12:02:39.487Z,100644.88
2018-12-01T12:05:43.830Z,100638.28
2018-12-01T12:08:48.232Z,100640.78
2018-12-01T12:11:52.580Z,100635.27
2018-12-01T12:14:57.261Z,100630.86
2018-12-01T12:18:04.152Z,100628.64
2018-12-01T12:21:08.609Z,100629.87
2018-12-01T12:24:12.927Z,100626.58
2018-12-01T12:27:17.993Z,100623.39
2018-12-01T12:30:25.964Z,100623.28
2018-12-01T12:33:28.583Z,100616.00
2018-12-01T12:36:34.039Z,100612.99
2018-12-01T12:39:38.636Z,100613.02
2018-12-01T12:42:42.961Z,100608.35
2018-12-01T12:45:47.272Z,100610.59
2018-12-01T12:48:51.730Z,100616.25
2018-12-01T12:51:56.207Z,100614.53
2018-12-01T12:55:00.575Z,100616.97
2018-12-01T12:58:06.442Z,100620.84
2018-12-01T13:01:11.593Z,100626.67
2018-12-01T13:04:15.897Z,100632.28
2018-12-01T13:07:20.369Z,100633.77
2018-12-01T13:10:27.827Z,100633.69
2018-12-01T13:13:32.562Z,100629.81
2018-12-01T13:16:36.965Z,100632.78
2018-12-01T13:19:41.366Z,100639.81
2018-12-01T13:22:47.194Z,100635.60
2018-12-01T13:25:51.492Z,100637.29
2018-12-01T13:28:55.800Z,100644.51
2018-12-01T13:32:00.168Z,100649.59
2018-12-01T13:35:04.515Z,100642.52
2018-12-01T13:38:09.209Z,100641.14
2018-12-01T13:41:13.590Z,100648.67
2018-12-01T13:44:18.005Z,100644.70
2018-12-01T13:47:22.369Z,100645.09
2018-12-01T13:50:27.958Z,100644.20
2018-12-01T13:53:33.952Z,100644.14
2018-12-01T13:56:39.070Z,100641.11
2018-12-01T13:59:48.219Z,100643.28
2018-12-01T14:02:52.592Z,100639.42
2018-12-01T14:05:57.802Z,100637.17
2018-12-01T14:09:08.865Z,100625.05
2018-12-01T14:12:19.744Z,100616.87
2018-12-01T14:15:24.635Z,100614.65
2018-12-01T14:18:28.963Z,100613.55
2018-12-01T14:21:33.393Z,100618.19
2018-12-01T14:24:37.903Z,100618.58
2018-12-01T14:27:44.721Z,100624.17
2018-12-01T14:30:49.331Z,100623.52
2018-12-01T14:33:53.683Z,100611.89
2018-12-01T14:36:58.082Z,100616.27
2018-12-01T14:40:02.689Z,100624.02
2018-12-01T14:43:07.110Z,100622.34
2018-12-01T14:46:11.457Z,100620.93
2018-12-01T14:49:16.044Z,100621.44
2018-12-01T14:52:22.781Z,100618.05
2018-12-01T14:55:27.378Z,100622.28
2018-12-01T14:58:32.365Z,100613.30
2018-12-01T15:01:37.374Z,100607.66
2018-12-01T15:04:42.448Z,100605.12
2018-12-01T15:07:47.861Z,100605.21
2018-12-01T15:10:52.602Z,100596.73
2018-12-01T15:17:11.548Z,100598.47
2018-12-01T15:20:17.706Z,100595.72
2018-12-01T15:23:22.334Z,100594.45
2018-12-01T15:26:28.118Z,100593.14
2018-12-01T15:29:47.591Z,100590.58
2018-12-01T15:33:02.376Z,100595.10
2018-12-01T15:36:07.284Z,100590.72
2018-12-01T15:39:12.065Z,100591.59
2018-12-01T15:42:16.500Z,100585.61
2018-12-01T15:45:22.438Z,100583.76
2018-12-01T15:48:28.556Z,100581.62
2018-12-01T15:51:32.977Z,100577.74
2018-12-01T15:54:37.381Z,100591.59
2018-12-01T15:57:41.988Z,100592.52
2018-12-01T16:00:46.658Z,100585.22
2018-12-01T16:03:51.072Z,100577.52
2018-12-01T16:06:55.571Z,100582.63
2018-12-01T16:09:59.926Z,100572.21
2018-12-01T16:13:13.730Z,100574.27
2018-12-01T16:16:18.445Z,100561.80
2018-12-01T16:19:22.905Z,100556.99
2018-12-01T16:22:27.240Z,100550.25
2018-12-01T16:25:31.665Z,100556.29
2018-12-01T16:28:37.752Z,100547.75
2018-12-01T16:31:42.155Z,100540.11
2018-12-01T16:34:46.475Z,100537.70
2018-12-01T16:37:50.830Z,100538.09
2018-12-01T16:40:57.798Z,100537.98
2018-12-01T16:44:02.222Z,100538.09
2018-12-01T16:47:07.466Z,100535.87
2018-12-01T16:50:14.801Z,100530.63
2018-12-01T16:53:21.383Z,100524.06
2018-12-01T16:56:25.763Z,100527.57
2018-12-01T16:59:30.074Z,100521.45
2018-12-01T17:02:34.469Z,100524.45
2018-12-01T17:05:42.318Z,100519.88
2018-12-01T17:08:46.999Z,100515.00
2018-12-01T17:11:51.472Z,100520.45
2018-12-01T17:14:55.806Z,100514.25
2018-12-01T17:18:00.151Z,100507.67
2018-12-01T17:21:04.564Z,100511.02
2018-12-01T17:24:08.954Z,100504.50
2018-12-01T17:27:13.283Z,100501.89
2018-12-01T17:30:23.460Z,100503.27
2018-12-01T17:33:28.107Z,100501.39
2018-12-01T17:36:32.453Z,100502.20
2018-12-01T17:39:36.770Z,100506.94
2018-12-01T17:42:41.800Z,100504.27
2018-12-01T17:45:46.127Z,100496.89
2018-12-01T17:48:50.865Z,100501.19
2018-12-01T17:51:55.232Z,100495.07
2018-12-01T17:55:00.625Z,100490.72
2018-12-01T17:58:08.379Z,100484.27
2018-12-01T18:01:12.792Z,100481.80
2018-12-01T18:04:17.115Z,100487.41
2018-12-01T18:07:21.528Z,100487.49
2018-12-01T18:10:25.952Z,100492.74
2018-12-01T18:13:30.393Z,100494.73
2018-12-01T18:16:34.829Z,100490.58
2018-12-01T18:19:39.123Z,100491.45
2018-12-01T18:22:43.677Z,100491.57
2018-12-01T18:25:51.696Z,100496.81
2018-12-01T18:28:56.170Z,100490.81
2018-12-01T18:32:00.512Z,100489.52
2018-12-01T18:35:04.926Z,100490.02
2018-12-01T18:38:10.576Z,100491.29
2018-12-01T18:41:15.087Z,100485.78
2018-12-01T18:44:19.523Z,100483.56
2018-12-01T18:47:23.869Z,100481.05
2018-12-01T18:50:30.032Z,100475.09
2018-12-01T18:53:34.342Z,100470.35
2018-12-01T18:56:38.677Z,100469.88
2018-12-01T18:59:43.087Z,100470.44
2018-12-01T19:02:47.651Z,100464.34
2018-12-01T19:05:52.156Z,100456.96
2018-12-01T19:08:56.806Z,100453.95
2018-12-01T19:12:01.102Z,100448.29
2018-12-01T19:15:06.776Z,100443.81
2018-12-01T19:18:11.220Z,100448.05
2018-12-01T19:21:15.772Z,100439.09
2018-12-01T19:24:20.130Z,100436.14
2018-12-01T19:27:24.520Z,100427.19
2018-12-01T19:30:28.900Z,100414.36
2018-12-01T19:33:33.365Z,100412.63
2018-12-01T19:36:37.802Z,100406.98
2018-12-01T19:39:43.962Z,100401.80
2018-12-01T19:42:48.433Z,100400.00
2018-12-01T19:45:52.753Z,100385.72
2018-12-01T19:48:57.090Z,100387.83
2018-12-01T19:52:01.416Z,100380.27
2018-12-01T19:55:08.472Z,100374.61
2018-12-01T19:58:15.264Z,100373.84
2018-12-01T20:01:19.603Z,100368.17
2018-12-01T20:04:24.044Z,100364.38
2018-12-01T20:07:28.381Z,100366.52
2018-12-01T20:10:36.856Z,100355.05
2018-12-01T20:13:44.665Z,100357.74
2018-12-01T20:16:53.082Z,100350.89
2018-12-01T20:19:57.421Z,100352.09
2018-12-01T20:23:01.810Z,100338.02
2018-12-01T20:26:06.418Z,100336.49
2018-12-01T20:29:10.909Z,100337.67
2018-12-01T20:32:15.943Z,100324.87
2018-12-01T20:35:59.573Z,100320.81
2018-12-01T20:39:22.323Z,100312.63
2018-12-01T20:42:27.394Z,100305.82
2018-12-01T20:45:31.796Z,100298.94
2018-12-01T20:48:36.208Z,100305.01
2018-12-01T20:51:41.554Z,100298.50
2018-12-01T20:54:47.459Z,100299.79
2018-12-01T20:57:55.460Z,100295.79
2018-12-01T21:01:00.224Z,100299.48
2018-12-01T21:04:04.661Z,100298.99
2018-12-01T21:07:09.025Z,100295.86
2018-12-01T21:10:19.498Z,100292.34
2018-12-01T21:13:24.102Z,100279.48
2018-12-01T21:16:29.652Z,100270.81
2018-12-01T21:19:34.139Z,100265.16
2018-12-01T21:22:38.675Z,100257.92
2018-12-01T21:25:43.041Z,100257.41
2018-12-01T21:28:47.573Z,100257.60
2018-12-01T21:31:53.514Z,100252.69
2018-12-01T21:34:58.662Z,100254.90
2018-12-01T21:38:03.076Z,100238.97
2018-12-01T21:41:07.648Z,100231.52
2018-12-01T21:44:12.034Z,100231.16
2018-12-01T21:47:16.550Z,100222.06
2018-12-01T21:50:23.998Z,100214.24
2018-12-01T21:53:28.335Z,100199.63
2018-12-01T21:56:32.690Z,100207.69
2018-12-01T21:59:38.267Z,100205.46
2018-12-01T22:02:42.637Z,100195.94
2018-12-01T22:06:00.069Z,100188.98
2018-12-01T22:09:06.600Z,100182.09
2018-12-01T22:12:11.209Z,100173.50
2018-12-01T22:15:18.288Z,100167.48
2018-12-01T22:18:23.515Z,100172.75
2018-12-01T22:21:28.151Z,100170.84
2018-12-01T22:24:32.598Z,100170.55
2018-12-01T22:27:37.002Z,100161.22
2018-12-01T22:30:42.147Z,100149.27
2018-12-01T22:33:47.793Z,100136.67
2018-12-01T22:36:52.826Z,100144.55
2018-12-01T22:39:57.606Z,100143.73
2018-12-01T22:43:04.742Z,100144.24
2018-12-01T22:46:09.299Z,100142.02
2018-12-01T22:49:13.786Z,100135.08
2018-12-01T22:52:18.146Z,100142.89
2018-12-01T22:55:27.256Z,100139.39
2018-12-01T22:58:31.678Z,100135.99
2018-12-01T23:01:36.163Z,100133.36
2018-12-01T23:04:40.513Z,100130.03
2018-12-01T23:07:45.170Z,100136.56
2018-12-01T23:10:49.559Z,100130.77
2018-12-01T23:13:53.881Z,100126.77
2018-12-01T23:16:58.212Z,100122.58
2018-12-01T23:20:02.656Z,100114.90
2018-12-01T23:23:07.676Z,100106.33
2018-12-01T23:26:13.109Z,100109.41
2018-12-01T23:29:17.404Z,100103.33
2018-12-01T23:32:21.845Z,100099.02
2018-12-01T23:35:26.521Z,100093.01
2018-12-01T23:38:30.874Z,100087.46
2018-12-01T23:41:35.230Z,100079.22
2018-12-01T23:44:39.508Z,100071.37
2018-12-01T23:47:44.669Z,100065.83
2018-12-01T23:50:55.305Z,100062.82
2018-12-01T23:54:02.802Z,100061.94
2018-12-01T23:57:07.528Z,100045.48
